createdAt,value
2022-10-12T00:01:45.918Z,10.67
2022-10-12T00:04:14.569Z,8.07
2022-10-12T00:06:42.813Z,8.63
2022-10-12T00:09:13.079Z,8.43
2022-10-12T00:11:42.946Z,10.97
2022-10-12T00:14:11.406Z,8.23
2022-10-12T00:16:39.557Z,8.57
2022-10-12T00:19:07.856Z,6.00
2022-10-12T00:21:36.662Z,12.97
2022-10-12T00:24:05.427Z,6.07
2022-10-12T00:26:35.315Z,7.60
2022-10-12T00:29:04.784Z,9.03
2022-10-12T00:31:34.326Z,7.50
2022-10-12T00:34:06.406Z,10.73
2022-10-12T00:36:37.456Z,13.13
2022-10-12T00:39:10.342Z,8.27
2022-10-12T00:41:43.382Z,7.33
2022-10-12T00:44:40.332Z,7.47
2022-10-12T00:47:20.992Z,8.03
2022-10-12T00:49:53.811Z,11.53
2022-10-12T00:52:25.615Z,9.67
2022-10-12T00:54:56.862Z,6.23
2022-10-12T00:57:26.738Z,11.50
2022-10-12T00:59:59.657Z,5.90
2022-10-12T01:02:30.913Z,11.37
2022-10-12T01:04:59.644Z,6.67
2022-10-12T01:07:27.971Z,7.40
2022-10-12T01:09:59.073Z,11.63
2022-10-12T01:12:30.747Z,7.30
2022-10-12T01:15:08.584Z,8.57
2022-10-12T01:17:46.866Z,10.03
2022-10-12T01:20:40.130Z,7.17
2022-10-12T01:23:47.101Z,7.40
2022-10-12T01:26:43.258Z,10.13
2022-10-12T01:29:29.183Z,13.10
2022-10-12T01:32:08.023Z,10.03
2022-10-12T01:34:46.115Z,10.53
2022-10-12T01:37:22.042Z,7.53
2022-10-12T01:39:55.665Z,9.00
2022-10-12T01:42:28.828Z,10.83
2022-10-12T01:45:08.479Z,11.47
2022-10-12T01:47:40.912Z,6.87
2022-10-12T01:50:13.657Z,11.20
2022-10-12T01:52:52.805Z,6.40
2022-10-12T01:55:30.277Z,9.57
2022-10-12T01:58:27.780Z,9.37
2022-10-12T02:01:04.308Z,9.17
2022-10-12T02:03:42.208Z,7.03
2022-10-12T02:06:13.862Z,10.13
2022-10-12T02:08:47.776Z,14.33
2022-10-12T02:11:18.406Z,13.73
2022-10-12T02:13:51.807Z,7.40
2022-10-12T02:16:24.487Z,7.73
2022-10-12T02:18:57.880Z,8.70
2022-10-12T02:21:31.479Z,13.17
2022-10-12T02:24:04.814Z,7.77
2022-10-12T02:26:35.580Z,5.37
2022-10-12T02:29:07.779Z,9.33
2022-10-12T02:31:44.537Z,13.13
2022-10-12T02:34:18.047Z,8.20
2022-10-12T02:36:52.149Z,9.60
2022-10-12T02:39:25.055Z,8.60
2022-10-12T02:41:59.262Z,7.30
2022-10-12T02:44:32.008Z,8.97
2022-10-12T02:47:04.599Z,10.73
2022-10-12T02:49:36.483Z,10.27
2022-10-12T02:52:07.505Z,8.47
2022-10-12T02:54:35.791Z,10.53
2022-10-12T02:57:04.299Z,9.77
2022-10-12T02:59:32.716Z,7.90
2022-10-12T03:02:01.234Z,9.00
2022-10-12T03:04:30.163Z,10.50
2022-10-12T03:07:00.954Z,9.50
2022-10-12T03:09:29.947Z,7.43
2022-10-12T03:11:59.055Z,10.63
2022-10-12T03:14:28.142Z,9.23
2022-10-12T03:16:56.356Z,7.57
2022-10-12T03:19:24.908Z,9.17
2022-10-12T03:21:53.181Z,8.60
2022-10-12T03:24:22.888Z,7.87
2022-10-12T03:26:52.175Z,14.07
2022-10-12T03:29:20.595Z,8.07
2022-10-12T03:31:48.852Z,10.03
2022-10-12T03:34:17.032Z,5.23
2022-10-12T03:36:45.293Z,8.90
2022-10-12T03:39:14.178Z,18.20
2022-10-12T03:41:44.101Z,8.30
2022-10-12T03:44:12.305Z,10.20
2022-10-12T03:46:40.457Z,9.97
2022-10-12T03:49:08.938Z,11.50
2022-10-12T03:51:37.291Z,12.73
2022-10-12T03:54:05.794Z,7.33
2022-10-12T03:56:34.475Z,9.83
2022-10-12T03:59:04.294Z,9.53
2022-10-12T04:01:32.516Z,10.43
2022-10-12T04:04:00.773Z,9.63
2022-10-12T04:06:29.098Z,8.87
2022-10-12T04:08:58.808Z,6.50
2022-10-12T04:11:27.836Z,12.17
2022-10-12T04:13:56.198Z,4.87
2022-10-12T04:16:28.749Z,7.17
2022-10-12T04:19:00.306Z,6.33
2022-10-12T04:21:35.492Z,10.43
2022-10-12T04:24:04.647Z,9.47
2022-10-12T04:26:32.847Z,9.50
2022-10-12T04:29:01.462Z,15.13
2022-10-12T04:31:31.216Z,8.20
2022-10-12T04:33:59.796Z,9.10
2022-10-12T04:36:28.590Z,6.57
2022-10-12T04:39:01.371Z,5.20
2022-10-12T04:41:30.157Z,11.77
2022-10-12T04:44:02.166Z,8.43
2022-10-12T04:46:32.578Z,9.80
2022-10-12T04:49:01.476Z,8.40
2022-10-12T04:51:30.636Z,6.00
2022-10-12T04:54:01.467Z,10.90
2022-10-12T04:56:29.595Z,6.43
2022-10-12T04:58:58.027Z,9.17
2022-10-12T05:01:26.129Z,12.30
2022-10-12T05:03:56.003Z,7.63
2022-10-12T05:06:24.697Z,11.77
2022-10-12T05:08:52.782Z,7.90
2022-10-12T05:11:21.076Z,5.30
2022-10-12T05:13:50.736Z,8.67
2022-10-12T05:16:18.825Z,7.87
2022-10-12T05:18:47.007Z,9.97
2022-10-12T05:21:16.748Z,10.30
2022-10-12T05:23:45.002Z,8.43
2022-10-12T05:26:13.264Z,9.07
2022-10-12T05:28:41.611Z,12.30
2022-10-12T05:31:12.322Z,12.50
2022-10-12T05:33:40.543Z,8.63
2022-10-12T05:36:09.686Z,6.53
2022-10-12T05:38:39.389Z,8.60
2022-10-12T05:41:07.948Z,5.77
2022-10-12T05:43:36.111Z,7.47
2022-10-12T05:46:04.807Z,9.90
2022-10-12T05:48:34.404Z,9.80
2022-10-12T05:51:02.524Z,12.00
2022-10-12T05:53:31.044Z,4.60
2022-10-12T05:56:02.586Z,9.97
2022-10-12T05:58:31.963Z,10.47
2022-10-12T06:01:06.986Z,8.67
2022-10-12T06:03:35.370Z,11.63
2022-10-12T06:06:03.790Z,5.73
2022-10-12T06:08:32.191Z,9.87
2022-10-12T06:11:01.792Z,8.17
2022-10-12T06:13:29.942Z,12.07
2022-10-12T06:15:58.345Z,5.73
2022-10-12T06:18:26.519Z,7.30
2022-10-12T06:21:20.999Z,9.50
2022-10-12T06:23:44.054Z,6.70
2022-10-12T06:26:13.515Z,6.33
2022-10-12T06:28:42.078Z,7.17
2022-10-12T06:31:10.706Z,7.80
2022-10-12T06:33:38.858Z,8.67
2022-10-12T06:36:07.367Z,8.00
2022-10-12T06:38:35.353Z,11.33
2022-10-12T06:41:03.386Z,9.50
2022-10-12T06:43:32.778Z,8.17
2022-10-12T06:46:02.072Z,9.17
2022-10-12T06:48:30.686Z,8.63
2022-10-12T06:50:59.126Z,10.17
2022-10-12T06:53:31.199Z,7.87
2022-10-12T06:55:59.460Z,8.27
2022-10-12T06:58:27.712Z,6.97
2022-10-12T07:00:57.241Z,10.17
2022-10-12T07:03:25.351Z,7.60
2022-10-12T07:05:53.632Z,7.23
2022-10-12T07:08:23.439Z,12.37
2022-10-12T07:10:53.990Z,11.23
2022-10-12T07:13:27.230Z,9.03
2022-10-12T07:15:56.936Z,12.47
2022-10-12T07:18:25.340Z,11.87
2022-10-12T07:20:55.237Z,5.63
2022-10-12T07:23:23.422Z,11.80
2022-10-12T07:25:52.508Z,9.40
2022-10-12T07:28:22.503Z,6.57
2022-10-12T07:30:51.098Z,9.17
2022-10-12T07:33:20.827Z,10.10
2022-10-12T07:36:14.439Z,5.10
2022-10-12T07:38:45.516Z,9.07
2022-10-12T07:41:14.675Z,10.13
2022-10-12T07:43:43.934Z,6.50
2022-10-12T07:46:13.172Z,8.57
2022-10-12T07:48:48.874Z,8.23
2022-10-12T07:51:18.276Z,8.53
2022-10-12T07:53:46.641Z,11.37
2022-10-12T07:56:16.314Z,7.83
2022-10-12T07:58:49.091Z,10.33
2022-10-12T08:01:18.070Z,11.33
2022-10-12T08:03:48.777Z,5.87
2022-10-12T08:06:19.528Z,8.20
2022-10-12T08:08:48.094Z,10.43
2022-10-12T08:11:17.173Z,8.53
2022-10-12T08:13:46.517Z,10.07
2022-10-12T08:16:17.286Z,5.17
2022-10-12T08:18:48.344Z,10.20
2022-10-12T08:21:20.252Z,8.83
2022-10-12T08:23:48.897Z,7.53
2022-10-12T08:26:17.688Z,11.40
2022-10-12T08:28:46.509Z,10.20
2022-10-12T08:31:19.882Z,7.57
2022-10-12T08:33:48.182Z,10.63
2022-10-12T08:36:18.256Z,6.60
2022-10-12T08:38:48.942Z,8.37
2022-10-12T08:41:32.429Z,7.60
2022-10-12T08:44:14.934Z,8.23
2022-10-12T08:46:44.089Z,11.40
2022-10-12T08:49:20.233Z,10.83
2022-10-12T08:51:54.706Z,9.40
2022-10-12T08:54:48.215Z,11.60
2022-10-12T08:57:19.131Z,8.97
2022-10-12T08:59:50.085Z,10.60
2022-10-12T09:05:57.608Z,10.97
2022-10-12T09:09:00.600Z,11.40
2022-10-12T09:11:47.812Z,7.37
2022-10-12T09:14:54.387Z,10.07
2022-10-12T09:17:28.400Z,10.73
2022-10-12T09:20:10.375Z,11.53
2022-10-12T09:25:51.260Z,12.10
2022-10-12T09:28:32.295Z,7.57
2022-10-12T09:31:17.745Z,10.60
2022-10-12T09:33:53.502Z,8.50
2022-10-12T09:36:26.560Z,12.00
2022-10-12T09:38:59.612Z,11.50
2022-10-12T09:42:03.087Z,9.77
2022-10-12T09:47:28.737Z,7.17
2022-10-12T10:28:52.121Z,9.67
2022-10-12T10:31:25.588Z,8.13
2022-10-12T10:34:36.222Z,8.97
2022-10-12T10:39:53.310Z,14.00
2022-10-12T10:42:24.295Z,13.37
2022-10-12T10:44:59.531Z,7.43
2022-10-12T10:50:13.761Z,8.17
2022-10-12T10:55:50.554Z,12.67
2022-10-12T10:58:38.806Z,6.37
2022-10-12T11:01:41.384Z,17.20
2022-10-12T11:04:20.004Z,9.47
2022-10-12T11:07:02.302Z,12.43
2022-10-12T11:09:39.841Z,8.63
2022-10-12T11:12:31.257Z,8.20
2022-10-12T11:15:17.935Z,10.80
2022-10-12T11:17:50.496Z,8.23
2022-10-12T11:21:29.144Z,8.43
2022-10-12T11:24:16.856Z,7.00
2022-10-12T11:26:54.368Z,10.53
2022-10-12T11:29:27.436Z,7.87
2022-10-12T11:32:22.711Z,8.93
2022-10-12T11:35:03.374Z,11.00
2022-10-12T11:37:40.439Z,8.27
2022-10-12T11:43:36.147Z,8.67
2022-10-12T11:46:13.171Z,8.20
2022-10-12T11:48:49.485Z,8.10
2022-10-12T11:51:18.904Z,6.87
2022-10-12T11:53:55.648Z,11.87
2022-10-12T11:56:36.272Z,7.97
2022-10-12T11:59:19.350Z,7.00
2022-10-12T12:01:57.745Z,11.03
2022-10-12T12:04:41.754Z,13.03
2022-10-12T12:11:20.647Z,8.43
2022-10-12T12:13:52.485Z,7.73
2022-10-12T12:16:31.750Z,4.53
2022-10-12T12:19:16.919Z,8.23
2022-10-12T12:22:19.399Z,10.90
2022-10-12T12:25:13.504Z,11.20
2022-10-12T12:31:13.726Z,6.17
2022-10-12T12:36:58.417Z,7.57
2022-10-12T12:39:43.569Z,8.23
2022-10-12T12:42:34.502Z,10.33
2022-10-12T12:45:57.024Z,7.70
2022-10-12T12:49:24.189Z,6.47
2022-10-12T12:51:58.192Z,8.87
2022-10-12T12:54:33.867Z,4.97
2022-10-12T12:57:33.775Z,5.03
2022-10-12T13:00:25.601Z,7.37
2022-10-12T13:03:25.525Z,7.73
2022-10-12T13:06:35.074Z,5.27
2022-10-12T13:09:45.529Z,9.27
2022-10-12T13:19:09.999Z,8.77
2022-10-12T13:21:44.831Z,8.93
2022-10-12T13:24:20.418Z,9.23
2022-10-12T13:26:53.001Z,6.77
2022-10-12T13:31:56.160Z,9.63
2022-10-12T13:34:29.956Z,8.43
2022-10-12T13:37:03.817Z,10.80
2022-10-12T13:39:40.330Z,9.10
2022-10-12T13:42:09.048Z,11.20
2022-10-12T13:44:38.231Z,15.00
2022-10-12T13:47:23.348Z,8.27
2022-10-12T13:50:02.411Z,7.90
2022-10-12T13:52:36.559Z,7.67
2022-10-12T13:55:17.796Z,4.97
2022-10-12T13:57:50.959Z,9.47
2022-10-12T14:00:25.194Z,9.47
2022-10-12T14:03:00.933Z,9.67
2022-10-12T14:05:30.877Z,7.17
2022-10-12T14:08:02.356Z,8.43
2022-10-12T14:10:35.291Z,9.57
2022-10-12T14:13:06.171Z,10.50
2022-10-12T14:15:37.507Z,10.23
2022-10-12T14:18:22.553Z,8.30
2022-10-12T14:20:50.837Z,8.47
2022-10-12T14:23:26.503Z,10.10
2022-10-12T14:25:57.173Z,8.97
2022-10-12T14:28:33.333Z,9.93
2022-10-12T14:31:01.948Z,10.07
2022-10-12T14:33:37.873Z,9.50
2022-10-12T14:36:23.921Z,9.57
2022-10-12T14:38:52.910Z,4.67
2022-10-12T14:41:37.856Z,6.80
2022-10-12T14:44:13.566Z,5.80
2022-10-12T14:46:55.015Z,5.97
2022-10-12T14:49:25.764Z,9.73
2022-10-12T14:51:55.807Z,10.63
2022-10-12T14:54:24.520Z,5.33
2022-10-12T14:56:55.136Z,4.47
2022-10-12T14:59:23.398Z,6.30
2022-10-12T15:01:51.825Z,9.90
2022-10-12T15:04:21.665Z,8.47
2022-10-12T15:06:51.013Z,9.53
2022-10-12T15:09:20.331Z,6.70
2022-10-12T15:11:56.152Z,5.07
2022-10-12T15:14:27.800Z,3.83
2022-10-12T15:17:00.019Z,4.67
2022-10-12T15:25:03.794Z,4.23
2022-10-12T15:36:34.981Z,3.33
2022-10-12T15:39:03.167Z,5.47
2022-10-12T15:41:32.386Z,5.30
2022-10-12T15:44:01.080Z,3.80
2022-10-12T15:46:30.470Z,3.87
2022-10-12T15:49:03.716Z,4.83
2022-10-12T15:51:32.725Z,9.97
2022-10-12T15:54:01.042Z,5.63
2022-10-12T15:56:29.708Z,3.53
2022-10-12T15:58:59.402Z,8.03
2022-10-12T16:01:27.626Z,4.90
2022-10-12T16:04:00.701Z,8.10
2022-10-12T16:06:29.240Z,11.17
2022-10-12T16:08:59.906Z,5.13
2022-10-12T16:11:28.079Z,6.63
2022-10-12T16:14:20.498Z,6.67
2022-10-12T16:17:02.279Z,8.83
2022-10-12T16:19:35.919Z,12.23
2022-10-12T16:22:05.522Z,9.63
2022-10-12T16:24:35.205Z,13.60
2022-10-12T16:27:05.064Z,10.50
2022-10-12T16:29:45.387Z,13.43
2022-10-12T16:32:18.592Z,15.17
2022-10-12T16:34:48.503Z,13.27
2022-10-12T16:37:16.952Z,19.33
2022-10-12T16:39:45.161Z,8.80
2022-10-12T16:42:13.623Z,15.83
2022-10-12T16:44:45.014Z,10.13
2022-10-12T16:47:13.783Z,22.03
2022-10-12T16:49:42.365Z,14.87
2022-10-12T16:52:14.579Z,15.33
2022-10-12T16:54:42.857Z,24.43
2022-10-12T16:57:11.317Z,15.90
2022-10-12T16:59:39.313Z,16.23
2022-10-12T17:02:07.420Z,7.67
2022-10-12T17:04:35.712Z,10.63
2022-10-12T17:07:03.774Z,19.17
2022-10-12T17:09:33.480Z,26.53
2022-10-12T17:12:01.898Z,19.43
2022-10-12T17:14:30.334Z,9.73
2022-10-12T17:16:58.722Z,22.67
2022-10-12T17:19:28.764Z,22.43
2022-10-12T17:21:59.480Z,16.70
2022-10-12T17:24:32.736Z,18.50
2022-10-12T17:27:04.030Z,14.10
2022-10-12T17:29:36.683Z,14.77
2022-10-12T17:32:05.780Z,18.03
2022-10-12T17:34:38.611Z,10.73
2022-10-12T17:37:08.260Z,12.97
2022-10-12T17:39:39.113Z,12.70
2022-10-12T17:42:09.499Z,11.97
2022-10-12T17:44:37.632Z,14.37
2022-10-12T17:47:06.190Z,18.80
2022-10-12T17:49:34.247Z,29.87
2022-10-12T17:52:02.411Z,23.70
2022-10-12T17:54:30.699Z,15.40
2022-10-12T17:56:59.387Z,23.93
2022-10-12T17:59:29.544Z,19.93
2022-10-12T18:01:57.596Z,15.27
2022-10-12T18:04:25.790Z,11.93
2022-10-12T18:06:53.900Z,17.77
2022-10-12T18:09:22.829Z,14.80
2022-10-12T18:11:54.687Z,10.80
2022-10-12T18:14:23.180Z,20.07
2022-10-12T18:17:00.289Z,19.03
2022-10-12T18:19:33.697Z,19.40
2022-10-12T18:22:03.629Z,13.07
2022-10-12T18:24:32.249Z,13.07
2022-10-12T18:27:27.984Z,18.20
2022-10-12T18:29:56.477Z,14.80
2022-10-12T18:32:26.468Z,20.23
2022-10-12T18:34:56.116Z,15.63
2022-10-12T18:37:25.178Z,18.97
2022-10-12T18:39:53.904Z,19.80
2022-10-12T18:42:25.598Z,9.73
2022-10-12T18:45:08.961Z,13.40
2022-10-12T18:47:43.186Z,17.33
2022-10-12T18:50:13.667Z,11.80
2022-10-12T18:52:44.812Z,14.53
2022-10-12T18:55:14.555Z,16.13
2022-10-12T18:57:45.533Z,16.87
2022-10-12T19:00:15.615Z,7.97
2022-10-12T19:02:46.041Z,12.90
2022-10-12T19:05:16.284Z,12.87
2022-10-12T19:07:44.643Z,17.20
2022-10-12T19:10:13.240Z,10.93
2022-10-12T19:12:49.616Z,13.53
2022-10-12T19:15:21.689Z,9.67
2022-10-12T19:24:08.512Z,10.23
2022-10-12T19:26:40.185Z,19.90
2022-10-12T19:39:54.029Z,6.60
2022-10-12T19:42:22.515Z,10.37
2022-10-12T19:45:21.107Z,13.23
2022-10-12T19:50:47.143Z,18.80
2022-10-12T19:53:17.888Z,19.03
2022-10-12T19:59:01.697Z,14.33
2022-10-12T20:07:57.499Z,22.77
2022-10-12T20:10:25.985Z,22.27
2022-10-12T20:12:59.035Z,24.50
2022-10-12T20:15:27.853Z,16.77
2022-10-12T20:17:56.232Z,16.53
2022-10-12T20:20:24.586Z,19.30
2022-10-12T20:22:53.177Z,15.90
2022-10-12T20:25:21.214Z,18.90
2022-10-12T20:27:51.188Z,13.40
2022-10-12T20:30:36.460Z,10.37
2022-10-12T20:33:05.265Z,12.13
2022-10-12T20:35:33.782Z,20.33
2022-10-12T20:38:02.828Z,11.83
2022-10-12T20:40:32.142Z,17.97
2022-10-12T20:43:00.502Z,24.80
2022-10-12T20:45:30.077Z,22.87
2022-10-12T20:47:58.948Z,14.77
2022-10-12T20:50:34.759Z,16.83
2022-10-12T20:53:03.557Z,21.80
2022-10-12T20:55:32.690Z,17.93
2022-10-12T20:58:02.032Z,16.67
2022-10-12T21:00:33.041Z,23.67
2022-10-12T21:03:06.716Z,14.97
2022-10-12T21:05:36.385Z,15.53
2022-10-12T21:08:05.798Z,15.67
2022-10-12T21:10:40.202Z,19.43
2022-10-12T21:19:26.456Z,15.63
2022-10-12T21:21:57.078Z,15.33
2022-10-12T21:24:29.762Z,19.67
2022-10-12T21:27:12.919Z,18.10
2022-10-12T21:29:44.333Z,17.13
2022-10-12T21:32:14.461Z,21.77
2022-10-12T21:34:43.327Z,20.93
2022-10-12T21:37:18.257Z,13.67
2022-10-12T21:39:49.632Z,23.00
2022-10-12T21:42:21.816Z,23.97
2022-10-12T21:44:51.604Z,19.20
2022-10-12T21:47:23.552Z,23.17
2022-10-12T21:49:57.919Z,27.03
2022-10-12T21:52:29.643Z,26.07
2022-10-12T21:54:59.644Z,15.07
2022-10-12T22:04:43.223Z,15.90
2022-10-12T22:25:12.290Z,21.73
2022-10-12T22:28:01.911Z,17.83
2022-10-12T22:30:36.146Z,14.83
2022-10-12T22:34:02.628Z,15.20
2022-10-12T22:36:45.859Z,17.53
2022-10-12T22:40:04.214Z,13.10
2022-10-12T22:42:46.281Z,12.63
2022-10-12T22:48:36.818Z,13.53
2022-10-12T22:51:27.467Z,40.70
